Puerto Vallarta, Mexico

6:19 PM CST on February 05, 2016 (GMT -0600)
Lic Gustavo Diaz Ordaz International | | Change Station
CLOSE
Current Station
Airport
Location: Puerto Vallarta,
Elevation: 20 ft
Nearby Weather Stations

Elev 20 ft 20.68 °N, 105.25 °W | Updated 33 minutes ago

Mostly Cloudy
Mostly Cloudy
79 °F
Feels Like 79 °F
N
8
Wind Variable Wind from SSW

Today
High -- | Low -- °F
--% Chance of Precip.
Yesterday
High -- | Low -- °F
Precip. -- in
Pressure 29.93 in
Visibility 15.0 miles
Clouds Mostly Cloudy 25000 ft
Dew Point 68 °F
Humidity 69%
Rainfall 0.00 in
Snow Depth Not available.
7:36 AM 6:54 PM
Waning Crescent, 8% visible
METAR MMPR 052346Z 21007KT 15SM BKN250 26/20 A2994 RMK SLP134 57001 920 8/001 ACCC SW
Pressure 29.93 in
Visibility 15.0 miles
Clouds Mostly Cloudy 25000 ft
Dew Point 68 °F
Humidity 69%
Rainfall 0.00 in
Snow Depth Not available.
7:36 AM 6:54 PM
Waning Crescent, 8% visible
METAR MMPR 052346Z 21007KT 15SM BKN250 26/20 A2994 RMK SLP134 57001 920 8/001 ACCC SW

10-Day Weather Forecast

No radar image for this location.
×

Almanac

Astronomy

Feb. 05, 2016 Rise Set
Actual Time
Civil Twilight
Nautical Twilight
Astronomical Twilight
Moon
Length of Visible Light
Length of Day
Tomorrow will be .
, % of the Moon is Illuminated

Today's Extremes

Country Highs Country Lows

Community

WunderPhotos

Upload Photos

1,890,893 photos uploaded!

WunderBlog® & News

Nearby

Air Quality

  Air Quality AQ Index Pollutant
Not available.

Snow Depth

Station Depth Elevation

Earthquake Activity

City Distance Mag. Time & Date
Minimum magnitude displayed is 2.5.

Coastal Water Temperatures

Place Temperature

Stations

Nearby Weather Stations

Station Location Temp. Windchill Dew Point Humidity Wind Precip. Elev Updated Type